sensor_id;sensor_type;location;lat;lon;timestamp;P1;durP1;ratioP1;P2;durP2;ratioP2
11486;SDS011;10510;47.942;9.442;2024-01-16T00:01:17;12.30;;;3.67;;
11486;SDS011;10510;47.942;9.442;2024-01-16T00:03:18;10.32;;;4.18;;
11486;SDS011;10510;47.942;9.442;2024-01-16T00:05:18;8.77;;;3.75;;
11486;SDS011;10510;47.942;9.442;2024-01-16T00:07:18;8.70;;;3.92;;
11486;SDS011;10510;47.942;9.442;2024-01-16T00:09:18;12.32;;;3.55;;
11486;SDS011;10510;47.942;9.442;2024-01-16T00:11:19;11.90;;;3.40;;
11486;SDS011;10510;47.942;9.442;2024-01-16T00:13:19;10.20;;;3.92;;
11486;SDS011;10510;47.942;9.442;2024-01-16T00:15:19;13.82;;;4.40;;
11486;SDS011;10510;47.942;9.442;2024-01-16T00:17:20;10.95;;;4.00;;
11486;SDS011;10510;47.942;9.442;2024-01-16T00:19:20;11.73;;;4.45;;
11486;SDS011;10510;47.942;9.442;2024-01-16T00:21:20;8.63;;;3.38;;
11486;SDS011;10510;47.942;9.442;2024-01-16T00:23:21;8.68;;;2.92;;
11486;SDS011;10510;47.942;9.442;2024-01-16T00:25:21;8.80;;;2.83;;
11486;SDS011;10510;47.942;9.442;2024-01-16T00:27:21;11.07;;;3.28;;
11486;SDS011;10510;47.942;9.442;2024-01-16T00:29:21;11.77;;;3.67;;
11486;SDS011;10510;47.942;9.442;2024-01-16T00:31:22;13.02;;;3.97;;
11486;SDS011;10510;47.942;9.442;2024-01-16T00:33:23;10.77;;;4.38;;
11486;SDS011;10510;47.942;9.442;2024-01-16T00:35:24;12.38;;;3.92;;
11486;SDS011;10510;47.942;9.442;2024-01-16T00:37:24;9.48;;;3.47;;
11486;SDS011;10510;47.942;9.442;2024-01-16T00:39:24;10.60;;;3.90;;
11486;SDS011;10510;47.942;9.442;2024-01-16T00:41:25;10.18;;;3.95;;
11486;SDS011;10510;47.942;9.442;2024-01-16T00:43:25;11.90;;;4.53;;
11486;SDS011;10510;47.942;9.442;2024-01-16T00:45:25;8.43;;;4.38;;
11486;SDS011;10510;47.942;9.442;2024-01-16T00:47:26;8.05;;;3.42;;
11486;SDS011;10510;47.942;9.442;2024-01-16T00:49:26;9.32;;;4.18;;
11486;SDS011;10510;47.942;9.442;2024-01-16T00:51:26;14.77;;;4.13;;
11486;SDS011;10510;47.942;9.442;2024-01-16T00:53:27;7.88;;;3.55;;
11486;SDS011;10510;47.942;9.442;2024-01-16T00:55:27;8.38;;;4.00;;
11486;SDS011;10510;47.942;9.442;2024-01-16T00:57:27;15.95;;;5.22;;
11486;SDS011;10510;47.942;9.442;2024-01-16T00:59:28;20.83;;;6.10;;
11486;SDS011;10510;47.942;9.442;2024-01-16T01:01:28;14.05;;;4.88;;
11486;SDS011;10510;47.942;9.442;2024-01-16T01:03:28;10.52;;;4.40;;
11486;SDS011;10510;47.942;9.442;2024-01-16T01:05:29;10.60;;;3.35;;
11486;SDS011;10510;47.942;9.442;2024-01-16T01:07:29;10.77;;;3.30;;
11486;SDS011;10510;47.942;9.442;2024-01-16T01:09:32;8.23;;;3.63;;
11486;SDS011;10510;47.942;9.442;2024-01-16T01:11:32;16.00;;;3.90;;
11486;SDS011;10510;47.942;9.442;2024-01-16T01:13:32;9.48;;;3.35;;
11486;SDS011;10510;47.942;9.442;2024-01-16T01:15:33;6.90;;;3.15;;
11486;SDS011;10510;47.942;9.442;2024-01-16T01:17:33;7.35;;;2.80;;
11486;SDS011;10510;47.942;9.442;2024-01-16T01:19:33;7.22;;;2.95;;
11486;SDS011;10510;47.942;9.442;2024-01-16T01:21:35;6.40;;;3.00;;
11486;SDS011;10510;47.942;9.442;2024-01-16T01:23:35;9.40;;;2.80;;
11486;SDS011;10510;47.942;9.442;2024-01-16T01:25:36;12.15;;;4.68;;
11486;SDS011;10510;47.942;9.442;2024-01-16T01:27:36;9.10;;;3.80;;
11486;SDS011;10510;47.942;9.442;2024-01-16T01:29:36;12.13;;;3.53;;
11486;SDS011;10510;47.942;9.442;2024-01-16T01:31:36;6.22;;;2.75;;
11486;SDS011;10510;47.942;9.442;2024-01-16T01:33:37;7.82;;;3.20;;
11486;SDS011;10510;47.942;9.442;2024-01-16T01:35:37;7.55;;;2.92;;
11486;SDS011;10510;47.942;9.442;2024-01-16T01:37:37;11.07;;;3.08;;
11486;SDS011;10510;47.942;9.442;2024-01-16T01:39:38;7.22;;;2.80;;
11486;SDS011;10510;47.942;9.442;2024-01-16T01:41:38;8.30;;;3.58;;
11486;SDS011;10510;47.942;9.442;2024-01-16T01:43:39;9.60;;;3.80;;
11486;SDS011;10510;47.942;9.442;2024-01-16T01:45:39;8.45;;;3.17;;
11486;SDS011;10510;47.942;9.442;2024-01-16T01:47:39;10.75;;;3.25;;
11486;SDS011;10510;47.942;9.442;2024-01-16T01:49:42;5.82;;;2.97;;
11486;SDS011;10510;47.942;9.442;2024-01-16T01:51:42;12.43;;;3.50;;
11486;SDS011;10510;47.942;9.442;2024-01-16T01:53:44;11.10;;;3.50;;
11486;SDS011;10510;47.942;9.442;2024-01-16T01:55:47;9.88;;;2.72;;
11486;SDS011;10510;47.942;9.442;2024-01-16T01:57:47;5.45;;;2.50;;
11486;SDS011;10510;47.942;9.442;2024-01-16T01:59:47;4.45;;;2.08;;
11486;SDS011;10510;47.942;9.442;2024-01-16T02:01:48;6.72;;;2.70;;
11486;SDS011;10510;47.942;9.442;2024-01-16T02:03:52;5.93;;;2.55;;
11486;SDS011;10510;47.942;9.442;2024-01-16T02:05:55;6.18;;;2.42;;
11486;SDS011;10510;47.942;9.442;2024-01-16T02:07:55;8.57;;;3.35;;
11486;SDS011;10510;47.942;9.442;2024-01-16T02:09:56;9.60;;;3.20;;
11486;SDS011;10510;47.942;9.442;2024-01-16T02:11:56;6.28;;;3.10;;
11486;SDS011;10510;47.942;9.442;2024-01-16T02:13:56;10.07;;;3.63;;
11486;SDS011;10510;47.942;9.442;2024-01-16T02:15:57;6.78;;;2.58;;
11486;SDS011;10510;47.942;9.442;2024-01-16T02:17:57;8.95;;;2.63;;
11486;SDS011;10510;47.942;9.442;2024-01-16T02:19:57;9.88;;;3.08;;
11486;SDS011;10510;47.942;9.442;2024-01-16T02:21:59;7.15;;;2.75;;
11486;SDS011;10510;47.942;9.442;2024-01-16T02:24:00;7.63;;;2.65;;
11486;SDS011;10510;47.942;9.442;2024-01-16T02:26:04;5.65;;;2.40;;
11486;SDS011;10510;47.942;9.442;2024-01-16T02:28:04;6.35;;;2.80;;
11486;SDS011;10510;47.942;9.442;2024-01-16T02:30:05;11.10;;;3.38;;
11486;SDS011;10510;47.942;9.442;2024-01-16T02:32:06;6.68;;;2.78;;
11486;SDS011;10510;47.942;9.442;2024-01-16T02:34:06;7.43;;;2.88;;
11486;SDS011;10510;47.942;9.442;2024-01-16T02:36:06;7.82;;;2.20;;
11486;SDS011;10510;47.942;9.442;2024-01-16T02:38:07;6.88;;;3.00;;
11486;SDS011;10510;47.942;9.442;2024-01-16T02:40:07;8.38;;;2.38;;
11486;SDS011;10510;47.942;9.442;2024-01-16T02:42:09;5.97;;;2.80;;
11486;SDS011;10510;47.942;9.442;2024-01-16T02:44:10;7.85;;;2.72;;
11486;SDS011;10510;47.942;9.442;2024-01-16T02:46:11;9.52;;;2.83;;
11486;SDS011;10510;47.942;9.442;2024-01-16T02:48:12;8.70;;;3.20;;
11486;SDS011;10510;47.942;9.442;2024-01-16T02:50:12;8.88;;;2.92;;
11486;SDS011;10510;47.942;9.442;2024-01-16T02:52:13;6.90;;;2.83;;
11486;SDS011;10510;47.942;9.442;2024-01-16T02:54:13;9.98;;;2.85;;
11486;SDS011;10510;47.942;9.442;2024-01-16T02:56:14;15.05;;;2.97;;
11486;SDS011;10510;47.942;9.442;2024-01-16T02:58:14;8.52;;;2.70;;
11486;SDS011;10510;47.942;9.442;2024-01-16T03:00:14;7.20;;;2.80;;
11486;SDS011;10510;47.942;9.442;2024-01-16T03:02:15;14.15;;;3.30;;
11486;SDS011;10510;47.942;9.442;2024-01-16T03:04:15;6.45;;;2.67;;
11486;SDS011;10510;47.942;9.442;2024-01-16T03:06:25;6.13;;;2.25;;
11486;SDS011;10510;47.942;9.442;2024-01-16T03:08:25;11.40;;;2.63;;
11486;SDS011;10510;47.942;9.442;2024-01-16T03:10:25;11.40;;;3.88;;
11486;SDS011;10510;47.942;9.442;2024-01-16T03:12:26;8.43;;;2.47;;
11486;SDS011;10510;47.942;9.442;2024-01-16T03:14:26;6.57;;;2.72;;
11486;SDS011;10510;47.942;9.442;2024-01-16T03:16:27;6.07;;;2.47;;
11486;SDS011;10510;47.942;9.442;2024-01-16T03:18:27;5.03;;;2.75;;
11486;SDS011;10510;47.942;9.442;2024-01-16T03:20:28;7.63;;;2.58;;
11486;SDS011;10510;47.942;9.442;2024-01-16T03:22:28;7.50;;;3.22;;
11486;SDS011;10510;47.942;9.442;2024-01-16T03:24:29;6.95;;;2.25;;
11486;SDS011;10510;47.942;9.442;2024-01-16T03:26:29;7.05;;;3.00;;
11486;SDS011;10510;47.942;9.442;2024-01-16T03:28:29;8.27;;;2.80;;
11486;SDS011;10510;47.942;9.442;2024-01-16T03:30:29;4.93;;;2.88;;
11486;SDS011;10510;47.942;9.442;2024-01-16T03:32:30;7.00;;;2.90;;
11486;SDS011;10510;47.942;9.442;2024-01-16T03:34:30;5.03;;;2.00;;
11486;SDS011;10510;47.942;9.442;2024-01-16T03:36:31;9.07;;;3.15;;
11486;SDS011;10510;47.942;9.442;2024-01-16T03:38:31;11.90;;;3.42;;
11486;SDS011;10510;47.942;9.442;2024-01-16T03:40:32;11.32;;;3.40;;
11486;SDS011;10510;47.942;9.442;2024-01-16T03:42:34;13.80;;;5.63;;
11486;SDS011;10510;47.942;9.442;2024-01-16T03:44:37;21.45;;;6.60;;
11486;SDS011;10510;47.942;9.442;2024-01-16T03:46:41;12.02;;;3.78;;
11486;SDS011;10510;47.942;9.442;2024-01-16T03:48:41;11.88;;;3.03;;
11486;SDS011;10510;47.942;9.442;2024-01-16T03:50:41;5.72;;;2.85;;
11486;SDS011;10510;47.942;9.442;2024-01-16T03:52:43;9.05;;;2.78;;
11486;SDS011;10510;47.942;9.442;2024-01-16T03:54:44;13.50;;;4.20;;
11486;SDS011;10510;47.942;9.442;2024-01-16T03:56:44;17.85;;;6.43;;
11486;SDS011;10510;47.942;9.442;2024-01-16T03:58:44;17.45;;;6.30;;
11486;SDS011;10510;47.942;9.442;2024-01-16T04:00:44;25.85;;;7.55;;
11486;SDS011;10510;47.942;9.442;2024-01-16T04:02:46;11.40;;;4.05;;
11486;SDS011;10510;47.942;9.442;2024-01-16T04:04:46;9.52;;;3.15;;
11486;SDS011;10510;47.942;9.442;2024-01-16T04:06:46;10.02;;;3.38;;
11486;SDS011;10510;47.942;9.442;2024-01-16T04:08:47;6.90;;;2.67;;
11486;SDS011;10510;47.942;9.442;2024-01-16T04:10:47;9.80;;;2.80;;
11486;SDS011;10510;47.942;9.442;2024-01-16T04:12:47;7.22;;;2.95;;
11486;SDS011;10510;47.942;9.442;2024-01-16T04:14:48;5.75;;;2.58;;
11486;SDS011;10510;47.942;9.442;2024-01-16T04:16:48;6.38;;;2.88;;
11486;SDS011;10510;47.942;9.442;2024-01-16T04:18:48;6.28;;;2.33;;
11486;SDS011;10510;47.942;9.442;2024-01-16T04:20:48;9.02;;;2.90;;
11486;SDS011;10510;47.942;9.442;2024-01-16T04:22:49;5.30;;;2.33;;
11486;SDS011;10510;47.942;9.442;2024-01-16T04:24:50;9.15;;;2.53;;
11486;SDS011;10510;47.942;9.442;2024-01-16T04:26:50;9.18;;;2.85;;
11486;SDS011;10510;47.942;9.442;2024-01-16T04:28:50;6.97;;;3.08;;
11486;SDS011;10510;47.942;9.442;2024-01-16T04:30:51;5.50;;;2.53;;
11486;SDS011;10510;47.942;9.442;2024-01-16T04:32:51;7.22;;;3.53;;
11486;SDS011;10510;47.942;9.442;2024-01-16T04:34:52;7.57;;;2.38;;
11486;SDS011;10510;47.942;9.442;2024-01-16T04:36:52;10.25;;;3.63;;
11486;SDS011;10510;47.942;9.442;2024-01-16T04:38:52;8.10;;;2.92;;
11486;SDS011;10510;47.942;9.442;2024-01-16T04:40:52;5.57;;;3.00;;
11486;SDS011;10510;47.942;9.442;2024-01-16T04:42:53;6.88;;;2.80;;
11486;SDS011;10510;47.942;9.442;2024-01-16T04:44:53;7.18;;;2.85;;
11486;SDS011;10510;47.942;9.442;2024-01-16T04:46:54;10.40;;;2.60;;
11486;SDS011;10510;47.942;9.442;2024-01-16T04:48:54;7.55;;;2.92;;
11486;SDS011;10510;47.942;9.442;2024-01-16T04:50:55;4.65;;;2.78;;
11486;SDS011;10510;47.942;9.442;2024-01-16T04:52:55;7.38;;;2.80;;
11486;SDS011;10510;47.942;9.442;2024-01-16T04:54:55;8.77;;;2.95;;
11486;SDS011;10510;47.942;9.442;2024-01-16T04:56:56;10.70;;;3.47;;
11486;SDS011;10510;47.942;9.442;2024-01-16T04:58:56;9.32;;;2.78;;
11486;SDS011;10510;47.942;9.442;2024-01-16T05:00:56;9.05;;;3.83;;
11486;SDS011;10510;47.942;9.442;2024-01-16T05:02:57;8.70;;;3.38;;
11486;SDS011;10510;47.942;9.442;2024-01-16T05:04:58;9.85;;;3.17;;
11486;SDS011;10510;47.942;9.442;2024-01-16T05:06:58;8.93;;;3.17;;
11486;SDS011;10510;47.942;9.442;2024-01-16T05:08:58;8.77;;;3.72;;
11486;SDS011;10510;47.942;9.442;2024-01-16T05:10:59;10.15;;;4.25;;
11486;SDS011;10510;47.942;9.442;2024-01-16T05:12:59;9.45;;;3.65;;
11486;SDS011;10510;47.942;9.442;2024-01-16T05:14:59;9.10;;;3.50;;
11486;SDS011;10510;47.942;9.442;2024-01-16T05:16:59;11.93;;;3.50;;
11486;SDS011;10510;47.942;9.442;2024-01-16T05:19:00;8.63;;;3.30;;
11486;SDS011;10510;47.942;9.442;2024-01-16T05:21:00;10.65;;;3.50;;
11486;SDS011;10510;47.942;9.442;2024-01-16T05:23:02;10.10;;;3.80;;
11486;SDS011;10510;47.942;9.442;2024-01-16T05:25:02;10.60;;;3.28;;
11486;SDS011;10510;47.942;9.442;2024-01-16T05:27:03;9.02;;;3.10;;
11486;SDS011;10510;47.942;9.442;2024-01-16T05:29:04;8.00;;;3.13;;
11486;SDS011;10510;47.942;9.442;2024-01-16T05:31:05;10.27;;;2.45;;
11486;SDS011;10510;47.942;9.442;2024-01-16T05:33:05;8.10;;;3.28;;
11486;SDS011;10510;47.942;9.442;2024-01-16T05:35:07;8.13;;;3.13;;
11486;SDS011;10510;47.942;9.442;2024-01-16T05:37:09;6.60;;;3.13;;
11486;SDS011;10510;47.942;9.442;2024-01-16T05:39:09;7.03;;;2.72;;
11486;SDS011;10510;47.942;9.442;2024-01-16T05:41:10;15.32;;;4.07;;
11486;SDS011;10510;47.942;9.442;2024-01-16T05:43:10;25.95;;;8.35;;
11486;SDS011;10510;47.942;9.442;2024-01-16T05:45:10;19.90;;;7.68;;
11486;SDS011;10510;47.942;9.442;2024-01-16T05:47:11;22.70;;;8.20;;
11486;SDS011;10510;47.942;9.442;2024-01-16T05:49:11;24.85;;;8.30;;
11486;SDS011;10510;47.942;9.442;2024-01-16T05:51:11;22.08;;;8.35;;
11486;SDS011;10510;47.942;9.442;2024-01-16T05:53:12;20.95;;;8.23;;
11486;SDS011;10510;47.942;9.442;2024-01-16T05:55:12;27.88;;;10.07;;
11486;SDS011;10510;47.942;9.442;2024-01-16T05:57:12;20.85;;;7.63;;
11486;SDS011;10510;47.942;9.442;2024-01-16T05:59:13;17.88;;;7.65;;
11486;SDS011;10510;47.942;9.442;2024-01-16T06:01:13;17.40;;;6.47;;
11486;SDS011;10510;47.942;9.442;2024-01-16T06:03:14;19.17;;;7.57;;
11486;SDS011;10510;47.942;9.442;2024-01-16T06:05:14;16.38;;;6.82;;
11486;SDS011;10510;47.942;9.442;2024-01-16T06:07:14;19.40;;;6.45;;
11486;SDS011;10510;47.942;9.442;2024-01-16T06:09:14;12.52;;;6.07;;
11486;SDS011;10510;47.942;9.442;2024-01-16T06:11:15;12.75;;;4.65;;
11486;SDS011;10510;47.942;9.442;2024-01-16T06:13:16;14.23;;;5.15;;
11486;SDS011;10510;47.942;9.442;2024-01-16T06:15:18;14.88;;;6.15;;
11486;SDS011;10510;47.942;9.442;2024-01-16T06:17:18;14.07;;;5.30;;
11486;SDS011;10510;47.942;9.442;2024-01-16T06:19:19;14.10;;;5.30;;
11486;SDS011;10510;47.942;9.442;2024-01-16T06:21:19;14.60;;;5.97;;
11486;SDS011;10510;47.942;9.442;2024-01-16T06:23:19;16.48;;;6.40;;
11486;SDS011;10510;47.942;9.442;2024-01-16T06:25:19;23.85;;;7.32;;
11486;SDS011;10510;47.942;9.442;2024-01-16T06:27:20;21.05;;;7.88;;
11486;SDS011;10510;47.942;9.442;2024-01-16T06:29:20;19.13;;;7.07;;
11486;SDS011;10510;47.942;9.442;2024-01-16T06:31:20;18.98;;;8.10;;
11486;SDS011;10510;47.942;9.442;2024-01-16T06:33:20;18.67;;;8.05;;
11486;SDS011;10510;47.942;9.442;2024-01-16T06:35:21;16.45;;;8.18;;
11486;SDS011;10510;47.942;9.442;2024-01-16T06:37:23;17.85;;;7.25;;
11486;SDS011;10510;47.942;9.442;2024-01-16T06:39:23;16.60;;;7.55;;
11486;SDS011;10510;47.942;9.442;2024-01-16T06:41:23;20.98;;;7.53;;
11486;SDS011;10510;47.942;9.442;2024-01-16T06:43:24;20.83;;;7.97;;
11486;SDS011;10510;47.942;9.442;2024-01-16T06:45:24;16.95;;;7.13;;
11486;SDS011;10510;47.942;9.442;2024-01-16T06:47:26;19.98;;;9.15;;
11486;SDS011;10510;47.942;9.442;2024-01-16T06:49:26;22.27;;;8.32;;
11486;SDS011;10510;47.942;9.442;2024-01-16T06:51:27;36.75;;;11.20;;
11486;SDS011;10510;47.942;9.442;2024-01-16T06:53:27;47.08;;;12.43;;
11486;SDS011;10510;47.942;9.442;2024-01-16T06:55:27;43.10;;;10.35;;
11486;SDS011;10510;47.942;9.442;2024-01-16T06:57:28;35.60;;;12.82;;
11486;SDS011;10510;47.942;9.442;2024-01-16T06:59:31;25.60;;;12.27;;
11486;SDS011;10510;47.942;9.442;2024-01-16T07:01:31;38.55;;;13.30;;
11486;SDS011;10510;47.942;9.442;2024-01-16T07:03:32;39.70;;;13.93;;
11486;SDS011;10510;47.942;9.442;2024-01-16T07:05:38;58.03;;;23.27;;
11486;SDS011;10510;47.942;9.442;2024-01-16T07:07:42;47.83;;;19.38;;
11486;SDS011;10510;47.942;9.442;2024-01-16T07:09:43;42.80;;;18.08;;
11486;SDS011;10510;47.942;9.442;2024-01-16T07:11:43;52.60;;;20.00;;
11486;SDS011;10510;47.942;9.442;2024-01-16T07:13:44;35.85;;;17.10;;
11486;SDS011;10510;47.942;9.442;2024-01-16T07:15:44;46.05;;;17.17;;
11486;SDS011;10510;47.942;9.442;2024-01-16T07:17:47;47.63;;;17.27;;
11486;SDS011;10510;47.942;9.442;2024-01-16T07:19:51;40.35;;;15.85;;
11486;SDS011;10510;47.942;9.442;2024-01-16T07:21:52;36.95;;;14.60;;
11486;SDS011;10510;47.942;9.442;2024-01-16T07:23:52;36.90;;;15.43;;
11486;SDS011;10510;47.942;9.442;2024-01-16T07:25:52;41.75;;;14.55;;
11486;SDS011;10510;47.942;9.442;2024-01-16T07:27:56;39.38;;;13.30;;
11486;SDS011;10510;47.942;9.442;2024-01-16T07:29:56;38.10;;;12.60;;
11486;SDS011;10510;47.942;9.442;2024-01-16T07:31:56;42.28;;;16.35;;
11486;SDS011;10510;47.942;9.442;2024-01-16T07:33:57;40.55;;;14.68;;
11486;SDS011;10510;47.942;9.442;2024-01-16T07:35:57;38.50;;;14.63;;
11486;SDS011;10510;47.942;9.442;2024-01-16T07:37:57;36.83;;;16.42;;
11486;SDS011;10510;47.942;9.442;2024-01-16T07:39:58;35.58;;;15.20;;
11486;SDS011;10510;47.942;9.442;2024-01-16T07:41:58;35.25;;;14.43;;
11486;SDS011;10510;47.942;9.442;2024-01-16T07:43:58;41.13;;;16.35;;
11486;SDS011;10510;47.942;9.442;2024-01-16T07:45:59;32.05;;;14.60;;
11486;SDS011;10510;47.942;9.442;2024-01-16T07:47:59;37.08;;;15.85;;
11486;SDS011;10510;47.942;9.442;2024-01-16T07:49:59;48.30;;;16.45;;
11486;SDS011;10510;47.942;9.442;2024-01-16T07:52:00;30.42;;;14.57;;
11486;SDS011;10510;47.942;9.442;2024-01-16T07:54:09;33.90;;;12.10;;
11486;SDS011;10510;47.942;9.442;2024-01-16T07:56:10;27.80;;;11.23;;
11486;SDS011;10510;47.942;9.442;2024-01-16T07:58:11;41.03;;;12.70;;
11486;SDS011;10510;47.942;9.442;2024-01-16T08:00:12;47.15;;;16.00;;
11486;SDS011;10510;47.942;9.442;2024-01-16T08:02:12;37.70;;;15.07;;
11486;SDS011;10510;47.942;9.442;2024-01-16T08:04:13;46.13;;;15.40;;
11486;SDS011;10510;47.942;9.442;2024-01-16T08:06:13;38.33;;;14.55;;
11486;SDS011;10510;47.942;9.442;2024-01-16T08:08:14;44.05;;;17.08;;
11486;SDS011;10510;47.942;9.442;2024-01-16T08:10:14;54.65;;;19.67;;
11486;SDS011;10510;47.942;9.442;2024-01-16T08:12:14;32.60;;;11.75;;
11486;SDS011;10510;47.942;9.442;2024-01-16T08:14:15;26.15;;;10.02;;
11486;SDS011;10510;47.942;9.442;2024-01-16T08:16:15;29.15;;;11.40;;
11486;SDS011;10510;47.942;9.442;2024-01-16T08:18:15;24.33;;;9.52;;
11486;SDS011;10510;47.942;9.442;2024-01-16T08:20:17;24.67;;;9.50;;
11486;SDS011;10510;47.942;9.442;2024-01-16T08:22:17;19.90;;;8.32;;
11486;SDS011;10510;47.942;9.442;2024-01-16T08:24:18;18.33;;;6.93;;
11486;SDS011;10510;47.942;9.442;2024-01-16T08:26:26;15.13;;;5.95;;
11486;SDS011;10510;47.942;9.442;2024-01-16T08:28:26;13.57;;;5.13;;
11486;SDS011;10510;47.942;9.442;2024-01-16T08:30:27;11.88;;;4.53;;
11486;SDS011;10510;47.942;9.442;2024-01-16T08:32:27;14.80;;;6.05;;
11486;SDS011;10510;47.942;9.442;2024-01-16T08:34:27;7.95;;;3.53;;
11486;SDS011;10510;47.942;9.442;2024-01-16T08:36:28;6.90;;;3.95;;
11486;SDS011;10510;47.942;9.442;2024-01-16T08:38:28;10.73;;;4.88;;
11486;SDS011;10510;47.942;9.442;2024-01-16T08:40:28;13.68;;;5.60;;
11486;SDS011;10510;47.942;9.442;2024-01-16T08:42:29;20.38;;;6.78;;
11486;SDS011;10510;47.942;9.442;2024-01-16T08:44:29;22.15;;;7.68;;
11486;SDS011;10510;47.942;9.442;2024-01-16T08:46:29;10.75;;;4.88;;
11486;SDS011;10510;47.942;9.442;2024-01-16T08:48:29;13.77;;;5.57;;
11486;SDS011;10510;47.942;9.442;2024-01-16T08:50:30;9.15;;;3.90;;
11486;SDS011;10510;47.942;9.442;2024-01-16T08:52:30;5.68;;;3.00;;
11486;SDS011;10510;47.942;9.442;2024-01-16T08:54:30;9.38;;;3.33;;
11486;SDS011;10510;47.942;9.442;2024-01-16T08:56:31;7.43;;;3.63;;
11486;SDS011;10510;47.942;9.442;2024-01-16T08:58:31;12.57;;;4.78;;
11486;SDS011;10510;47.942;9.442;2024-01-16T09:00:35;13.80;;;6.75;;
11486;SDS011;10510;47.942;9.442;2024-01-16T09:02:36;14.52;;;6.57;;
11486;SDS011;10510;47.942;9.442;2024-01-16T09:04:36;20.45;;;7.78;;
11486;SDS011;10510;47.942;9.442;2024-01-16T09:06:38;14.43;;;6.13;;
11486;SDS011;10510;47.942;9.442;2024-01-16T09:08:38;11.95;;;6.38;;
11486;SDS011;10510;47.942;9.442;2024-01-16T09:10:39;16.73;;;7.07;;
11486;SDS011;10510;47.942;9.442;2024-01-16T09:12:39;14.00;;;6.25;;
11486;SDS011;10510;47.942;9.442;2024-01-16T09:14:39;12.07;;;5.18;;
11486;SDS011;10510;47.942;9.442;2024-01-16T09:16:41;10.40;;;5.15;;
11486;SDS011;10510;47.942;9.442;2024-01-16T09:18:42;7.82;;;3.78;;
11486;SDS011;10510;47.942;9.442;2024-01-16T09:20:43;10.23;;;4.45;;
11486;SDS011;10510;47.942;9.442;2024-01-16T09:22:43;13.75;;;5.22;;
11486;SDS011;10510;47.942;9.442;2024-01-16T09:24:43;14.45;;;4.70;;
11486;SDS011;10510;47.942;9.442;2024-01-16T09:26:44;8.52;;;4.15;;
11486;SDS011;10510;47.942;9.442;2024-01-16T09:28:44;8.32;;;3.58;;
11486;SDS011;10510;47.942;9.442;2024-01-16T09:30:44;7.55;;;4.38;;
11486;SDS011;10510;47.942;9.442;2024-01-16T09:32:45;6.68;;;3.50;;
11486;SDS011;10510;47.942;9.442;2024-01-16T09:34:45;11.68;;;4.65;;
11486;SDS011;10510;47.942;9.442;2024-01-16T09:36:46;6.97;;;3.25;;
11486;SDS011;10510;47.942;9.442;2024-01-16T09:38:46;12.38;;;4.00;;
11486;SDS011;10510;47.942;9.442;2024-01-16T09:40:46;6.93;;;3.55;;
11486;SDS011;10510;47.942;9.442;2024-01-16T09:42:47;8.63;;;3.83;;
11486;SDS011;10510;47.942;9.442;2024-01-16T09:44:48;11.27;;;4.80;;
11486;SDS011;10510;47.942;9.442;2024-01-16T09:46:48;10.20;;;5.20;;
11486;SDS011;10510;47.942;9.442;2024-01-16T09:48:52;10.85;;;5.07;;
11486;SDS011;10510;47.942;9.442;2024-01-16T09:50:55;11.05;;;5.25;;
11486;SDS011;10510;47.942;9.442;2024-01-16T09:52:55;9.02;;;4.90;;
11486;SDS011;10510;47.942;9.442;2024-01-16T09:54:56;14.38;;;6.43;;
11486;SDS011;10510;47.942;9.442;2024-01-16T09:56:58;10.02;;;5.47;;
11486;SDS011;10510;47.942;9.442;2024-01-16T09:59:01;9.10;;;4.63;;
11486;SDS011;10510;47.942;9.442;2024-01-16T10:01:06;8.95;;;5.13;;
11486;SDS011;10510;47.942;9.442;2024-01-16T10:03:07;11.48;;;5.45;;
11486;SDS011;10510;47.942;9.442;2024-01-16T10:05:09;8.68;;;4.85;;
11486;SDS011;10510;47.942;9.442;2024-01-16T10:07:12;10.52;;;5.57;;
11486;SDS011;10510;47.942;9.442;2024-01-16T10:09:14;11.82;;;4.75;;
11486;SDS011;10510;47.942;9.442;2024-01-16T10:11:15;12.20;;;5.43;;
11486;SDS011;10510;47.942;9.442;2024-01-16T10:13:16;12.25;;;5.57;;
11486;SDS011;10510;47.942;9.442;2024-01-16T10:15:17;14.68;;;6.03;;
11486;SDS011;10510;47.942;9.442;2024-01-16T10:17:19;12.57;;;5.38;;
11486;SDS011;10510;47.942;9.442;2024-01-16T10:19:20;10.80;;;5.30;;
11486;SDS011;10510;47.942;9.442;2024-01-16T10:21:20;11.60;;;5.65;;
11486;SDS011;10510;47.942;9.442;2024-01-16T10:23:25;12.60;;;5.63;;
11486;SDS011;10510;47.942;9.442;2024-01-16T10:25:27;13.25;;;5.38;;
11486;SDS011;10510;47.942;9.442;2024-01-16T10:27:27;11.35;;;5.15;;
11486;SDS011;10510;47.942;9.442;2024-01-16T10:29:30;11.32;;;5.63;;
11486;SDS011;10510;47.942;9.442;2024-01-16T10:31:31;15.32;;;5.38;;
11486;SDS011;10510;47.942;9.442;2024-01-16T10:33:31;10.52;;;5.25;;
11486;SDS011;10510;47.942;9.442;2024-01-16T10:35:32;14.23;;;5.93;;
11486;SDS011;10510;47.942;9.442;2024-01-16T10:37:42;10.32;;;5.28;;
11486;SDS011;10510;47.942;9.442;2024-01-16T10:39:50;11.05;;;4.85;;
11486;SDS011;10510;47.942;9.442;2024-01-16T10:41:54;16.45;;;4.85;;
11486;SDS011;10510;47.942;9.442;2024-01-16T10:44:03;17.00;;;7.45;;
11486;SDS011;10510;47.942;9.442;2024-01-16T10:48:12;12.32;;;4.65;;
11486;SDS011;10510;47.942;9.442;2024-01-16T10:50:12;7.45;;;4.28;;
11486;SDS011;10510;47.942;9.442;2024-01-16T10:52:12;12.32;;;5.38;;
11486;SDS011;10510;47.942;9.442;2024-01-16T10:54:14;11.40;;;5.47;;
11486;SDS011;10510;47.942;9.442;2024-01-16T10:56:15;10.02;;;5.50;;
11486;SDS011;10510;47.942;9.442;2024-01-16T10:58:21;10.07;;;4.22;;
11486;SDS011;10510;47.942;9.442;2024-01-16T11:00:23;8.32;;;4.10;;
11486;SDS011;10510;47.942;9.442;2024-01-16T11:02:24;19.17;;;5.80;;
11486;SDS011;10510;47.942;9.442;2024-01-16T11:04:36;7.75;;;3.95;;
11486;SDS011;10510;47.942;9.442;2024-01-16T11:06:37;10.43;;;4.32;;
11486;SDS011;10510;47.942;9.442;2024-01-16T11:08:39;9.18;;;3.85;;
11486;SDS011;10510;47.942;9.442;2024-01-16T11:10:40;6.38;;;4.20;;
11486;SDS011;10510;47.942;9.442;2024-01-16T11:12:41;9.50;;;4.38;;
11486;SDS011;10510;47.942;9.442;2024-01-16T11:14:44;7.80;;;3.92;;
11486;SDS011;10510;47.942;9.442;2024-01-16T11:16:48;7.53;;;4.22;;
11486;SDS011;10510;47.942;9.442;2024-01-16T11:18:49;8.48;;;4.35;;
11486;SDS011;10510;47.942;9.442;2024-01-16T11:20:49;8.10;;;4.30;;
11486;SDS011;10510;47.942;9.442;2024-01-16T11:22:50;18.15;;;5.10;;
11486;SDS011;10510;47.942;9.442;2024-01-16T11:27:22;10.82;;;4.75;;
11486;SDS011;10510;47.942;9.442;2024-01-16T11:31:33;11.15;;;4.25;;
11486;SDS011;10510;47.942;9.442;2024-01-16T11:35:35;15.38;;;4.60;;
11486;SDS011;10510;47.942;9.442;2024-01-16T11:37:38;13.27;;;4.78;;
11486;SDS011;10510;47.942;9.442;2024-01-16T11:39:41;10.25;;;4.70;;
11486;SDS011;10510;47.942;9.442;2024-01-16T11:43:57;13.15;;;4.35;;
11486;SDS011;10510;47.942;9.442;2024-01-16T11:45:58;13.85;;;5.80;;
11486;SDS011;10510;47.942;9.442;2024-01-16T11:48:11;11.55;;;4.15;;
11486;SDS011;10510;47.942;9.442;2024-01-16T11:50:12;8.68;;;4.22;;
11486;SDS011;10510;47.942;9.442;2024-01-16T11:53:00;10.45;;;4.28;;
11486;SDS011;10510;47.942;9.442;2024-01-16T11:54:53;13.77;;;4.75;;
11486;SDS011;10510;47.942;9.442;2024-01-16T12:01:48;35.08;;;6.22;;
11486;SDS011;10510;47.942;9.442;2024-01-16T12:04:06;9.65;;;4.47;;
11486;SDS011;10510;47.942;9.442;2024-01-16T12:06:06;14.13;;;4.43;;
11486;SDS011;10510;47.942;9.442;2024-01-16T12:08:10;18.67;;;4.53;;
11486;SDS011;10510;47.942;9.442;2024-01-16T12:10:11;22.38;;;5.47;;
11486;SDS011;10510;47.942;9.442;2024-01-16T12:12:11;13.68;;;4.80;;
11486;SDS011;10510;47.942;9.442;2024-01-16T12:14:15;12.88;;;4.90;;
11486;SDS011;10510;47.942;9.442;2024-01-16T12:16:18;15.00;;;4.95;;
11486;SDS011;10510;47.942;9.442;2024-01-16T12:18:19;11.95;;;4.18;;